sensor_id;sensor_type;location;lat;lon;timestamp;P1;durP1;ratioP1;P2;durP2;ratioP2
28028;SDS011;15345;59.364;18.016;2022-12-20T00:00:51;30.50;;;17.95;;
28028;SDS011;15345;59.364;18.016;2022-12-20T00:02:10;31.80;;;17.77;;
28028;SDS011;15345;59.364;18.016;2022-12-20T00:03:29;26.80;;;17.23;;
28028;SDS011;15345;59.364;18.016;2022-12-20T00:04:48;32.35;;;18.67;;
28028;SDS011;15345;59.364;18.016;2022-12-20T00:06:07;30.85;;;17.02;;
28028;SDS011;15345;59.364;18.016;2022-12-20T00:07:26;29.67;;;17.55;;
28028;SDS011;15345;59.364;18.016;2022-12-20T00:08:45;35.20;;;18.42;;
28028;SDS011;15345;59.364;18.016;2022-12-20T00:10:05;29.92;;;17.83;;
28028;SDS011;15345;59.364;18.016;2022-12-20T00:11:24;36.00;;;19.25;;
28028;SDS011;15345;59.364;18.016;2022-12-20T00:12:43;31.80;;;17.45;;
28028;SDS011;15345;59.364;18.016;2022-12-20T00:14:02;28.33;;;17.83;;
28028;SDS011;15345;59.364;18.016;2022-12-20T00:15:21;28.55;;;16.88;;
28028;SDS011;15345;59.364;18.016;2022-12-20T00:16:40;34.65;;;16.85;;
28028;SDS011;15345;59.364;18.016;2022-12-20T00:17:59;29.63;;;16.88;;
28028;SDS011;15345;59.364;18.016;2022-12-20T00:19:18;26.27;;;16.77;;
28028;SDS011;15345;59.364;18.016;2022-12-20T00:20:37;30.02;;;17.92;;
28028;SDS011;15345;59.364;18.016;2022-12-20T00:21:55;27.42;;;16.67;;
28028;SDS011;15345;59.364;18.016;2022-12-20T00:23:15;28.40;;;17.17;;
28028;SDS011;15345;59.364;18.016;2022-12-20T00:24:33;27.95;;;18.05;;
28028;SDS011;15345;59.364;18.016;2022-12-20T00:25:52;29.45;;;18.02;;
28028;SDS011;15345;59.364;18.016;2022-12-20T00:27:17;27.98;;;17.48;;
28028;SDS011;15345;59.364;18.016;2022-12-20T00:28:36;27.52;;;16.75;;
28028;SDS011;15345;59.364;18.016;2022-12-20T00:29:54;33.13;;;18.33;;
28028;SDS011;15345;59.364;18.016;2022-12-20T00:31:14;34.78;;;19.52;;
28028;SDS011;15345;59.364;18.016;2022-12-20T00:32:33;32.83;;;18.88;;
28028;SDS011;15345;59.364;18.016;2022-12-20T00:33:53;30.67;;;17.35;;
28028;SDS011;15345;59.364;18.016;2022-12-20T00:35:12;34.38;;;18.60;;
28028;SDS011;15345;59.364;18.016;2022-12-20T00:36:32;31.85;;;17.65;;
28028;SDS011;15345;59.364;18.016;2022-12-20T00:37:51;29.23;;;18.17;;
28028;SDS011;15345;59.364;18.016;2022-12-20T00:39:10;31.45;;;18.23;;
28028;SDS011;15345;59.364;18.016;2022-12-20T00:40:29;29.13;;;17.60;;
28028;SDS011;15345;59.364;18.016;2022-12-20T00:41:48;29.70;;;16.83;;
28028;SDS011;15345;59.364;18.016;2022-12-20T00:43:07;28.77;;;17.45;;
28028;SDS011;15345;59.364;18.016;2022-12-20T00:44:26;27.45;;;16.90;;
28028;SDS011;15345;59.364;18.016;2022-12-20T00:45:45;28.33;;;16.77;;
28028;SDS011;15345;59.364;18.016;2022-12-20T00:47:04;24.75;;;16.02;;
28028;SDS011;15345;59.364;18.016;2022-12-20T00:48:23;30.02;;;17.00;;
28028;SDS011;15345;59.364;18.016;2022-12-20T00:49:42;30.27;;;17.15;;
28028;SDS011;15345;59.364;18.016;2022-12-20T00:51:08;26.85;;;16.50;;
28028;SDS011;15345;59.364;18.016;2022-12-20T00:52:28;29.58;;;17.10;;
28028;SDS011;15345;59.364;18.016;2022-12-20T00:53:47;26.05;;;17.00;;
28028;SDS011;15345;59.364;18.016;2022-12-20T00:55:06;28.98;;;18.15;;
28028;SDS011;15345;59.364;18.016;2022-12-20T00:56:25;30.67;;;17.73;;
28028;SDS011;15345;59.364;18.016;2022-12-20T00:57:44;29.73;;;18.42;;
28028;SDS011;15345;59.364;18.016;2022-12-20T00:59:03;30.67;;;19.65;;
28028;SDS011;15345;59.364;18.016;2022-12-20T01:00:22;31.90;;;19.65;;
28028;SDS011;15345;59.364;18.016;2022-12-20T01:01:41;32.83;;;20.10;;
28028;SDS011;15345;59.364;18.016;2022-12-20T01:02:59;34.47;;;19.60;;
28028;SDS011;15345;59.364;18.016;2022-12-20T01:04:19;31.17;;;18.63;;
28028;SDS011;15345;59.364;18.016;2022-12-20T01:05:37;27.25;;;17.60;;
28028;SDS011;15345;59.364;18.016;2022-12-20T01:06:57;33.13;;;19.10;;
28028;SDS011;15345;59.364;18.016;2022-12-20T01:08:16;33.15;;;19.23;;
28028;SDS011;15345;59.364;18.016;2022-12-20T01:09:35;33.80;;;20.08;;
28028;SDS011;15345;59.364;18.016;2022-12-20T01:11:00;31.52;;;19.17;;
28028;SDS011;15345;59.364;18.016;2022-12-20T01:12:19;29.48;;;18.30;;
28028;SDS011;15345;59.364;18.016;2022-12-20T01:13:40;32.38;;;19.20;;
28028;SDS011;15345;59.364;18.016;2022-12-20T01:14:59;28.52;;;17.00;;
28028;SDS011;15345;59.364;18.016;2022-12-20T01:16:20;29.88;;;18.88;;
28028;SDS011;15345;59.364;18.016;2022-12-20T01:17:39;28.20;;;18.90;;
28028;SDS011;15345;59.364;18.016;2022-12-20T01:18:58;35.63;;;20.35;;
28028;SDS011;15345;59.364;18.016;2022-12-20T01:20:17;30.00;;;19.25;;
28028;SDS011;15345;59.364;18.016;2022-12-20T01:21:36;31.27;;;18.15;;
28028;SDS011;15345;59.364;18.016;2022-12-20T01:22:57;29.13;;;18.63;;
28028;SDS011;15345;59.364;18.016;2022-12-20T01:24:18;30.70;;;18.38;;
28028;SDS011;15345;59.364;18.016;2022-12-20T01:25:37;32.33;;;20.13;;
28028;SDS011;15345;59.364;18.016;2022-12-20T01:26:56;31.67;;;18.45;;
28028;SDS011;15345;59.364;18.016;2022-12-20T01:28:15;31.08;;;18.83;;
28028;SDS011;15345;59.364;18.016;2022-12-20T01:29:34;34.78;;;18.90;;
28028;SDS011;15345;59.364;18.016;2022-12-20T01:30:52;33.85;;;18.92;;
28028;SDS011;15345;59.364;18.016;2022-12-20T01:32:11;30.88;;;20.35;;
28028;SDS011;15345;59.364;18.016;2022-12-20T01:33:30;28.42;;;17.77;;
28028;SDS011;15345;59.364;18.016;2022-12-20T01:34:49;32.20;;;19.20;;
28028;SDS011;15345;59.364;18.016;2022-12-20T01:36:16;28.65;;;17.83;;
28028;SDS011;15345;59.364;18.016;2022-12-20T01:37:35;29.98;;;17.33;;
28028;SDS011;15345;59.364;18.016;2022-12-20T01:38:57;32.65;;;19.02;;
28028;SDS011;15345;59.364;18.016;2022-12-20T01:40:16;29.55;;;17.65;;
28028;SDS011;15345;59.364;18.016;2022-12-20T01:41:36;32.20;;;18.55;;
28028;SDS011;15345;59.364;18.016;2022-12-20T01:42:55;35.40;;;19.73;;
28028;SDS011;15345;59.364;18.016;2022-12-20T01:45:36;34.88;;;19.50;;
28028;SDS011;15345;59.364;18.016;2022-12-20T01:46:56;32.45;;;19.73;;
28028;SDS011;15345;59.364;18.016;2022-12-20T01:48:17;34.25;;;19.70;;
28028;SDS011;15345;59.364;18.016;2022-12-20T01:49:41;34.28;;;19.80;;
28028;SDS011;15345;59.364;18.016;2022-12-20T01:51:00;33.85;;;19.55;;
28028;SDS011;15345;59.364;18.016;2022-12-20T01:52:41;32.38;;;20.23;;
28028;SDS011;15345;59.364;18.016;2022-12-20T01:54:01;35.83;;;20.33;;
28028;SDS011;15345;59.364;18.016;2022-12-20T01:55:21;34.33;;;19.80;;
28028;SDS011;15345;59.364;18.016;2022-12-20T01:56:43;35.33;;;20.30;;
28028;SDS011;15345;59.364;18.016;2022-12-20T01:58:07;36.17;;;19.48;;
28028;SDS011;15345;59.364;18.016;2022-12-20T01:59:27;35.88;;;19.50;;
28028;SDS011;15345;59.364;18.016;2022-12-20T02:00:46;35.17;;;20.08;;
28028;SDS011;15345;59.364;18.016;2022-12-20T02:02:07;38.97;;;20.42;;
28028;SDS011;15345;59.364;18.016;2022-12-20T02:03:27;34.33;;;20.25;;
28028;SDS011;15345;59.364;18.016;2022-12-20T02:04:48;30.85;;;18.63;;
28028;SDS011;15345;59.364;18.016;2022-12-20T02:06:18;33.95;;;19.63;;
28028;SDS011;15345;59.364;18.016;2022-12-20T02:07:37;37.42;;;18.40;;
28028;SDS011;15345;59.364;18.016;2022-12-20T02:08:57;31.90;;;19.80;;
28028;SDS011;15345;59.364;18.016;2022-12-20T02:10:17;33.60;;;20.05;;
28028;SDS011;15345;59.364;18.016;2022-12-20T02:13:02;37.63;;;20.58;;
28028;SDS011;15345;59.364;18.016;2022-12-20T02:15:49;38.45;;;20.95;;
28028;SDS011;15345;59.364;18.016;2022-12-20T02:20:03;44.15;;;23.40;;
28028;SDS011;15345;59.364;18.016;2022-12-20T02:21:29;42.55;;;23.02;;
28028;SDS011;15345;59.364;18.016;2022-12-20T02:23:13;39.92;;;22.27;;
28028;SDS011;15345;59.364;18.016;2022-12-20T02:24:39;36.22;;;20.55;;
28028;SDS011;15345;59.364;18.016;2022-12-20T02:27:57;45.08;;;22.45;;
28028;SDS011;15345;59.364;18.016;2022-12-20T02:29:24;41.70;;;22.05;;
28028;SDS011;15345;59.364;18.016;2022-12-20T02:30:45;40.30;;;21.67;;
28028;SDS011;15345;59.364;18.016;2022-12-20T02:33:24;40.38;;;21.77;;
28028;SDS011;15345;59.364;18.016;2022-12-20T02:34:44;39.05;;;20.77;;
28028;SDS011;15345;59.364;18.016;2022-12-20T02:36:04;39.25;;;21.70;;
28028;SDS011;15345;59.364;18.016;2022-12-20T02:37:23;41.05;;;21.60;;
28028;SDS011;15345;59.364;18.016;2022-12-20T02:38:42;38.85;;;22.42;;
28028;SDS011;15345;59.364;18.016;2022-12-20T02:40:02;37.80;;;22.48;;
28028;SDS011;15345;59.364;18.016;2022-12-20T02:41:23;40.03;;;22.23;;
28028;SDS011;15345;59.364;18.016;2022-12-20T02:42:43;41.25;;;21.33;;
28028;SDS011;15345;59.364;18.016;2022-12-20T02:44:10;40.42;;;19.50;;
28028;SDS011;15345;59.364;18.016;2022-12-20T02:45:48;39.33;;;20.90;;
28028;SDS011;15345;59.364;18.016;2022-12-20T02:47:09;37.55;;;20.90;;
28028;SDS011;15345;59.364;18.016;2022-12-20T02:48:29;38.08;;;21.23;;
28028;SDS011;15345;59.364;18.016;2022-12-20T02:49:49;40.63;;;22.50;;
28028;SDS011;15345;59.364;18.016;2022-12-20T02:51:09;40.25;;;22.25;;
28028;SDS011;15345;59.364;18.016;2022-12-20T02:52:29;39.60;;;21.20;;
28028;SDS011;15345;59.364;18.016;2022-12-20T02:53:49;39.85;;;21.27;;
28028;SDS011;15345;59.364;18.016;2022-12-20T02:55:08;44.78;;;21.85;;
28028;SDS011;15345;59.364;18.016;2022-12-20T02:57:57;38.35;;;21.33;;
28028;SDS011;15345;59.364;18.016;2022-12-20T02:59:19;37.67;;;22.45;;
28028;SDS011;15345;59.364;18.016;2022-12-20T03:00:39;37.65;;;20.90;;
28028;SDS011;15345;59.364;18.016;2022-12-20T03:01:59;39.60;;;21.80;;
28028;SDS011;15345;59.364;18.016;2022-12-20T03:03:19;38.03;;;21.00;;
28028;SDS011;15345;59.364;18.016;2022-12-20T03:04:42;39.00;;;20.42;;
28028;SDS011;15345;59.364;18.016;2022-12-20T03:06:01;39.08;;;21.30;;
28028;SDS011;15345;59.364;18.016;2022-12-20T03:07:20;39.08;;;21.23;;
28028;SDS011;15345;59.364;18.016;2022-12-20T03:08:39;39.92;;;22.50;;
28028;SDS011;15345;59.364;18.016;2022-12-20T03:09:58;39.67;;;20.27;;
28028;SDS011;15345;59.364;18.016;2022-12-20T03:11:17;35.92;;;19.92;;
28028;SDS011;15345;59.364;18.016;2022-12-20T03:12:38;38.92;;;21.58;;
28028;SDS011;15345;59.364;18.016;2022-12-20T03:13:56;32.30;;;19.55;;
28028;SDS011;15345;59.364;18.016;2022-12-20T03:15:15;34.70;;;19.73;;
28028;SDS011;15345;59.364;18.016;2022-12-20T03:16:34;36.92;;;21.17;;
28028;SDS011;15345;59.364;18.016;2022-12-20T03:17:53;36.83;;;21.02;;
28028;SDS011;15345;59.364;18.016;2022-12-20T03:19:12;39.17;;;19.50;;
28028;SDS011;15345;59.364;18.016;2022-12-20T03:20:31;36.03;;;19.48;;
28028;SDS011;15345;59.364;18.016;2022-12-20T03:21:50;38.72;;;19.70;;
28028;SDS011;15345;59.364;18.016;2022-12-20T03:23:09;38.90;;;20.20;;
28028;SDS011;15345;59.364;18.016;2022-12-20T03:24:29;37.75;;;20.10;;
28028;SDS011;15345;59.364;18.016;2022-12-20T03:25:48;37.05;;;21.58;;
28028;SDS011;15345;59.364;18.016;2022-12-20T03:27:07;37.08;;;20.83;;
28028;SDS011;15345;59.364;18.016;2022-12-20T03:28:26;35.58;;;19.23;;
28028;SDS011;15345;59.364;18.016;2022-12-20T03:29:45;33.10;;;19.15;;
28028;SDS011;15345;59.364;18.016;2022-12-20T03:31:04;33.47;;;19.42;;
28028;SDS011;15345;59.364;18.016;2022-12-20T03:32:23;34.35;;;19.25;;
28028;SDS011;15345;59.364;18.016;2022-12-20T03:33:42;35.22;;;18.83;;
28028;SDS011;15345;59.364;18.016;2022-12-20T03:35:01;34.50;;;19.00;;
28028;SDS011;15345;59.364;18.016;2022-12-20T03:36:20;29.25;;;18.25;;
28028;SDS011;15345;59.364;18.016;2022-12-20T03:37:41;32.45;;;18.75;;
28028;SDS011;15345;59.364;18.016;2022-12-20T03:39:00;32.15;;;18.38;;
28028;SDS011;15345;59.364;18.016;2022-12-20T03:40:19;35.20;;;20.02;;
28028;SDS011;15345;59.364;18.016;2022-12-20T03:41:38;30.98;;;18.98;;
28028;SDS011;15345;59.364;18.016;2022-12-20T03:42:57;32.53;;;20.38;;
28028;SDS011;15345;59.364;18.016;2022-12-20T03:44:16;35.85;;;19.77;;
28028;SDS011;15345;59.364;18.016;2022-12-20T03:45:35;34.95;;;20.77;;
28028;SDS011;15345;59.364;18.016;2022-12-20T03:46:54;39.75;;;19.80;;
28028;SDS011;15345;59.364;18.016;2022-12-20T03:48:13;33.28;;;19.92;;
28028;SDS011;15345;59.364;18.016;2022-12-20T03:49:32;41.20;;;21.35;;
28028;SDS011;15345;59.364;18.016;2022-12-20T03:50:51;34.47;;;19.58;;
28028;SDS011;15345;59.364;18.016;2022-12-20T03:52:11;37.80;;;19.75;;
28028;SDS011;15345;59.364;18.016;2022-12-20T03:53:30;37.58;;;20.73;;
28028;SDS011;15345;59.364;18.016;2022-12-20T03:54:49;38.95;;;20.08;;
28028;SDS011;15345;59.364;18.016;2022-12-20T03:56:08;40.70;;;21.15;;
28028;SDS011;15345;59.364;18.016;2022-12-20T03:57:27;36.33;;;20.52;;
28028;SDS011;15345;59.364;18.016;2022-12-20T03:58:46;35.50;;;19.70;;
28028;SDS011;15345;59.364;18.016;2022-12-20T04:00:05;35.92;;;18.90;;
28028;SDS011;15345;59.364;18.016;2022-12-20T04:01:25;39.22;;;21.13;;
28028;SDS011;15345;59.364;18.016;2022-12-20T04:02:45;37.88;;;20.70;;
28028;SDS011;15345;59.364;18.016;2022-12-20T04:04:04;35.08;;;19.73;;
28028;SDS011;15345;59.364;18.016;2022-12-20T04:05:23;36.38;;;21.27;;
28028;SDS011;15345;59.364;18.016;2022-12-20T04:06:42;35.83;;;21.17;;
28028;SDS011;15345;59.364;18.016;2022-12-20T04:08:01;36.58;;;20.73;;
28028;SDS011;15345;59.364;18.016;2022-12-20T04:09:20;35.15;;;20.25;;
28028;SDS011;15345;59.364;18.016;2022-12-20T04:10:39;36.80;;;21.20;;
28028;SDS011;15345;59.364;18.016;2022-12-20T04:12:17;33.13;;;19.80;;
28028;SDS011;15345;59.364;18.016;2022-12-20T04:13:36;34.67;;;19.92;;
28028;SDS011;15345;59.364;18.016;2022-12-20T04:14:55;36.85;;;19.08;;
28028;SDS011;15345;59.364;18.016;2022-12-20T04:16:14;34.85;;;20.25;;
28028;SDS011;15345;59.364;18.016;2022-12-20T04:17:33;37.72;;;20.35;;
28028;SDS011;15345;59.364;18.016;2022-12-20T04:18:52;36.65;;;20.58;;
28028;SDS011;15345;59.364;18.016;2022-12-20T04:20:15;35.58;;;19.65;;
28028;SDS011;15345;59.364;18.016;2022-12-20T04:21:37;35.88;;;19.13;;
28028;SDS011;15345;59.364;18.016;2022-12-20T04:22:56;32.97;;;19.63;;
28028;SDS011;15345;59.364;18.016;2022-12-20T04:24:15;37.25;;;20.38;;
28028;SDS011;15345;59.364;18.016;2022-12-20T04:25:34;34.67;;;19.35;;
28028;SDS011;15345;59.364;18.016;2022-12-20T04:26:53;34.83;;;19.42;;
28028;SDS011;15345;59.364;18.016;2022-12-20T04:28:12;33.47;;;20.08;;
28028;SDS011;15345;59.364;18.016;2022-12-20T04:29:30;37.00;;;20.60;;
28028;SDS011;15345;59.364;18.016;2022-12-20T04:30:49;38.67;;;19.65;;
28028;SDS011;15345;59.364;18.016;2022-12-20T04:32:08;32.90;;;19.33;;
28028;SDS011;15345;59.364;18.016;2022-12-20T04:33:27;37.70;;;20.08;;
28028;SDS011;15345;59.364;18.016;2022-12-20T04:34:46;36.95;;;19.88;;
28028;SDS011;15345;59.364;18.016;2022-12-20T04:36:05;33.75;;;19.50;;
28028;SDS011;15345;59.364;18.016;2022-12-20T04:37:24;32.75;;;18.70;;
28028;SDS011;15345;59.364;18.016;2022-12-20T04:38:43;32.58;;;18.60;;
28028;SDS011;15345;59.364;18.016;2022-12-20T04:40:02;33.85;;;18.10;;
28028;SDS011;15345;59.364;18.016;2022-12-20T04:41:22;31.58;;;18.77;;
28028;SDS011;15345;59.364;18.016;2022-12-20T04:42:40;35.45;;;19.13;;
28028;SDS011;15345;59.364;18.016;2022-12-20T04:43:59;34.10;;;18.17;;
28028;SDS011;15345;59.364;18.016;2022-12-20T04:45:18;31.08;;;18.30;;
28028;SDS011;15345;59.364;18.016;2022-12-20T04:46:37;33.92;;;18.58;;
28028;SDS011;15345;59.364;18.016;2022-12-20T04:47:56;31.58;;;18.25;;
28028;SDS011;15345;59.364;18.016;2022-12-20T04:49:15;29.50;;;18.17;;
28028;SDS011;15345;59.364;18.016;2022-12-20T04:50:34;30.95;;;18.23;;
28028;SDS011;15345;59.364;18.016;2022-12-20T04:51:53;30.50;;;18.33;;
28028;SDS011;15345;59.364;18.016;2022-12-20T04:53:12;31.88;;;17.80;;
28028;SDS011;15345;59.364;18.016;2022-12-20T04:54:50;28.77;;;16.70;;
28028;SDS011;15345;59.364;18.016;2022-12-20T04:56:09;29.25;;;17.65;;
28028;SDS011;15345;59.364;18.016;2022-12-20T04:57:28;28.65;;;16.52;;
28028;SDS011;15345;59.364;18.016;2022-12-20T04:58:48;35.25;;;17.92;;
28028;SDS011;15345;59.364;18.016;2022-12-20T05:00:07;31.05;;;17.90;;
28028;SDS011;15345;59.364;18.016;2022-12-20T05:01:26;32.42;;;17.58;;
28028;SDS011;15345;59.364;18.016;2022-12-20T05:02:45;30.55;;;18.67;;
28028;SDS011;15345;59.364;18.016;2022-12-20T05:04:04;33.30;;;17.88;;
28028;SDS011;15345;59.364;18.016;2022-12-20T05:05:23;32.42;;;17.83;;
28028;SDS011;15345;59.364;18.016;2022-12-20T05:06:42;31.10;;;17.67;;
28028;SDS011;15345;59.364;18.016;2022-12-20T05:08:01;29.08;;;17.42;;
28028;SDS011;15345;59.364;18.016;2022-12-20T05:09:19;31.00;;;17.60;;
28028;SDS011;15345;59.364;18.016;2022-12-20T05:10:38;35.45;;;17.50;;
28028;SDS011;15345;59.364;18.016;2022-12-20T05:11:57;28.70;;;16.55;;
28028;SDS011;15345;59.364;18.016;2022-12-20T05:13:16;32.63;;;17.42;;
28028;SDS011;15345;59.364;18.016;2022-12-20T05:14:35;32.92;;;16.30;;
28028;SDS011;15345;59.364;18.016;2022-12-20T05:15:54;26.67;;;17.65;;
28028;SDS011;15345;59.364;18.016;2022-12-20T05:17:13;32.83;;;18.20;;
28028;SDS011;15345;59.364;18.016;2022-12-20T05:18:32;27.58;;;16.50;;
28028;SDS011;15345;59.364;18.016;2022-12-20T05:19:51;28.55;;;16.58;;
28028;SDS011;15345;59.364;18.016;2022-12-20T05:21:10;28.55;;;16.08;;
28028;SDS011;15345;59.364;18.016;2022-12-20T05:22:48;30.25;;;16.30;;
28028;SDS011;15345;59.364;18.016;2022-12-20T05:24:26;24.45;;;13.85;;
28028;SDS011;15345;59.364;18.016;2022-12-20T05:26:04;27.63;;;14.98;;
28028;SDS011;15345;59.364;18.016;2022-12-20T05:27:35;23.15;;;13.80;;
28028;SDS011;15345;59.364;18.016;2022-12-20T05:28:54;25.20;;;14.13;;
28028;SDS011;15345;59.364;18.016;2022-12-20T05:30:13;24.73;;;15.02;;
28028;SDS011;15345;59.364;18.016;2022-12-20T05:31:33;27.48;;;13.90;;
28028;SDS011;15345;59.364;18.016;2022-12-20T05:32:52;22.10;;;14.05;;
28028;SDS011;15345;59.364;18.016;2022-12-20T05:34:11;24.58;;;14.98;;
28028;SDS011;15345;59.364;18.016;2022-12-20T05:35:30;23.40;;;13.27;;
28028;SDS011;15345;59.364;18.016;2022-12-20T05:36:49;21.70;;;13.63;;
28028;SDS011;15345;59.364;18.016;2022-12-20T05:38:08;22.95;;;14.10;;
28028;SDS011;15345;59.364;18.016;2022-12-20T05:39:27;22.00;;;13.55;;
28028;SDS011;15345;59.364;18.016;2022-12-20T05:40:46;19.98;;;12.88;;
28028;SDS011;15345;59.364;18.016;2022-12-20T05:42:06;22.45;;;13.45;;
28028;SDS011;15345;59.364;18.016;2022-12-20T05:43:25;23.15;;;14.18;;
28028;SDS011;15345;59.364;18.016;2022-12-20T05:44:43;22.92;;;13.57;;
28028;SDS011;15345;59.364;18.016;2022-12-20T05:46:02;19.92;;;12.80;;
28028;SDS011;15345;59.364;18.016;2022-12-20T05:47:21;23.40;;;13.32;;
28028;SDS011;15345;59.364;18.016;2022-12-20T05:48:40;21.52;;;13.45;;
28028;SDS011;15345;59.364;18.016;2022-12-20T05:49:59;21.35;;;12.40;;
28028;SDS011;15345;59.364;18.016;2022-12-20T05:51:18;19.90;;;13.18;;
28028;SDS011;15345;59.364;18.016;2022-12-20T05:52:37;21.38;;;13.07;;
28028;SDS011;15345;59.364;18.016;2022-12-20T05:53:56;22.10;;;12.95;;
28028;SDS011;15345;59.364;18.016;2022-12-20T05:55:15;23.55;;;12.80;;
28028;SDS011;15345;59.364;18.016;2022-12-20T05:56:34;21.98;;;12.70;;
28028;SDS011;15345;59.364;18.016;2022-12-20T05:57:53;22.40;;;12.02;;
28028;SDS011;15345;59.364;18.016;2022-12-20T05:59:12;19.40;;;12.38;;
28028;SDS011;15345;59.364;18.016;2022-12-20T06:00:31;20.23;;;12.85;;
28028;SDS011;15345;59.364;18.016;2022-12-20T06:01:50;18.67;;;11.85;;
28028;SDS011;15345;59.364;18.016;2022-12-20T06:03:09;18.73;;;12.65;;
28028;SDS011;15345;59.364;18.016;2022-12-20T06:04:30;20.88;;;12.10;;
28028;SDS011;15345;59.364;18.016;2022-12-20T06:05:49;21.85;;;13.07;;
28028;SDS011;15345;59.364;18.016;2022-12-20T06:07:07;19.58;;;12.35;;
28028;SDS011;15345;59.364;18.016;2022-12-20T06:08:26;27.92;;;12.65;;
28028;SDS011;15345;59.364;18.016;2022-12-20T06:09:45;22.42;;;12.95;;
28028;SDS011;15345;59.364;18.016;2022-12-20T06:11:04;19.48;;;12.40;;
28028;SDS011;15345;59.364;18.016;2022-12-20T06:12:24;18.73;;;12.40;;
28028;SDS011;15345;59.364;18.016;2022-12-20T06:13:44;17.80;;;11.82;;
28028;SDS011;15345;59.364;18.016;2022-12-20T06:15:03;20.65;;;13.38;;
28028;SDS011;15345;59.364;18.016;2022-12-20T06:16:22;22.20;;;13.73;;
28028;SDS011;15345;59.364;18.016;2022-12-20T06:17:41;23.17;;;11.60;;
28028;SDS011;15345;59.364;18.016;2022-12-20T06:19:00;18.65;;;11.68;;
28028;SDS011;15345;59.364;18.016;2022-12-20T06:20:18;16.83;;;11.48;;
28028;SDS011;15345;59.364;18.016;2022-12-20T06:21:37;19.17;;;11.88;;
28028;SDS011;15345;59.364;18.016;2022-12-20T06:22:56;18.70;;;11.50;;
28028;SDS011;15345;59.364;18.016;2022-12-20T06:24:15;19.55;;;11.77;;
28028;SDS011;15345;59.364;18.016;2022-12-20T06:25:34;19.90;;;11.18;;
28028;SDS011;15345;59.364;18.016;2022-12-20T06:26:53;19.80;;;12.60;;
28028;SDS011;15345;59.364;18.016;2022-12-20T06:28:12;21.30;;;12.27;;
28028;SDS011;15345;59.364;18.016;2022-12-20T06:29:31;25.00;;;14.30;;
28028;SDS011;15345;59.364;18.016;2022-12-20T06:30:54;20.25;;;12.10;;
28028;SDS011;15345;59.364;18.016;2022-12-20T06:33:32;22.73;;;13.20;;
28028;SDS011;15345;59.364;18.016;2022-12-20T06:34:51;18.77;;;11.88;;
28028;SDS011;15345;59.364;18.016;2022-12-20T06:36:10;16.15;;;11.50;;
28028;SDS011;15345;59.364;18.016;2022-12-20T06:37:29;16.25;;;10.60;;
28028;SDS011;15345;59.364;18.016;2022-12-20T06:38:49;15.98;;;10.60;;
28028;SDS011;15345;59.364;18.016;2022-12-20T06:40:09;14.50;;;10.13;;
28028;SDS011;15345;59.364;18.016;2022-12-20T06:41:29;16.88;;;10.65;;
28028;SDS011;15345;59.364;18.016;2022-12-20T06:42:48;24.27;;;14.23;;
28028;SDS011;15345;59.364;18.016;2022-12-20T06:44:08;17.25;;;11.20;;
28028;SDS011;15345;59.364;18.016;2022-12-20T06:45:27;15.68;;;10.57;;
28028;SDS011;15345;59.364;18.016;2022-12-20T06:46:46;15.05;;;10.35;;
28028;SDS011;15345;59.364;18.016;2022-12-20T06:48:04;17.02;;;11.38;;
28028;SDS011;15345;59.364;18.016;2022-12-20T06:49:23;15.73;;;10.68;;
28028;SDS011;15345;59.364;18.016;2022-12-20T06:50:43;17.67;;;11.55;;
28028;SDS011;15345;59.364;18.016;2022-12-20T06:52:02;18.42;;;10.95;;
28028;SDS011;15345;59.364;18.016;2022-12-20T06:53:21;17.33;;;11.82;;
28028;SDS011;15345;59.364;18.016;2022-12-20T06:54:40;15.63;;;11.40;;
28028;SDS011;15345;59.364;18.016;2022-12-20T06:55:59;13.57;;;10.80;;
28028;SDS011;15345;59.364;18.016;2022-12-20T06:57:18;15.95;;;10.48;;
28028;SDS011;15345;59.364;18.016;2022-12-20T06:58:37;21.92;;;11.35;;
28028;SDS011;15345;59.364;18.016;2022-12-20T06:59:56;14.50;;;10.27;;
28028;SDS011;15345;59.364;18.016;2022-12-20T07:01:15;13.60;;;9.90;;
28028;SDS011;15345;59.364;18.016;2022-12-20T07:02:34;18.52;;;10.27;;
28028;SDS011;15345;59.364;18.016;2022-12-20T07:03:53;16.65;;;11.05;;
28028;SDS011;15345;59.364;18.016;2022-12-20T07:05:12;18.90;;;11.35;;
28028;SDS011;15345;59.364;18.016;2022-12-20T07:06:30;17.17;;;11.15;;
28028;SDS011;15345;59.364;18.016;2022-12-20T07:07:49;14.80;;;10.68;;
28028;SDS011;15345;59.364;18.016;2022-12-20T07:09:08;13.90;;;9.82;;
28028;SDS011;15345;59.364;18.016;2022-12-20T07:10:27;19.05;;;10.95;;
28028;SDS011;15345;59.364;18.016;2022-12-20T07:11:46;16.83;;;10.57;;
28028;SDS011;15345;59.364;18.016;2022-12-20T07:13:05;17.88;;;11.55;;
28028;SDS011;15345;59.364;18.016;2022-12-20T07:14:24;18.70;;;11.98;;
28028;SDS011;15345;59.364;18.016;2022-12-20T07:15:44;16.15;;;10.95;;
28028;SDS011;15345;59.364;18.016;2022-12-20T07:17:03;15.88;;;10.93;;
28028;SDS011;15345;59.364;18.016;2022-12-20T07:18:22;14.90;;;11.00;;
28028;SDS011;15345;59.364;18.016;2022-12-20T07:19:41;17.15;;;11.55;;
28028;SDS011;15345;59.364;18.016;2022-12-20T07:21:01;17.63;;;11.25;;
28028;SDS011;15345;59.364;18.016;2022-12-20T07:22:20;20.83;;;11.27;;
28028;SDS011;15345;59.364;18.016;2022-12-20T07:23:39;19.60;;;12.02;;
28028;SDS011;15345;59.364;18.016;2022-12-20T07:24:58;17.70;;;11.02;;
28028;SDS011;15345;59.364;18.016;2022-12-20T07:26:17;17.95;;;10.82;;
28028;SDS011;15345;59.364;18.016;2022-12-20T07:27:36;18.13;;;10.85;;
28028;SDS011;15345;59.364;18.016;2022-12-20T07:28:55;18.65;;;11.13;;
28028;SDS011;15345;59.364;18.016;2022-12-20T07:30:14;17.50;;;10.73;;
28028;SDS011;15345;59.364;18.016;2022-12-20T07:31:33;17.52;;;11.15;;
28028;SDS011;15345;59.364;18.016;2022-12-20T07:32:52;17.80;;;11.52;;
28028;SDS011;15345;59.364;18.016;2022-12-20T07:34:11;19.55;;;10.95;;
28028;SDS011;15345;59.364;18.016;2022-12-20T07:35:30;17.00;;;11.07;;
28028;SDS011;15345;59.364;18.016;2022-12-20T07:36:49;17.73;;;11.30;;
28028;SDS011;15345;59.364;18.016;2022-12-20T07:38:08;14.43;;;10.82;;
28028;SDS011;15345;59.364;18.016;2022-12-20T07:39:27;16.30;;;10.43;;
28028;SDS011;15345;59.364;18.016;2022-12-20T07:40:46;20.45;;;11.88;;
28028;SDS011;15345;59.364;18.016;2022-12-20T07:42:05;18.70;;;10.55;;
28028;SDS011;15345;59.364;18.016;2022-12-20T07:43:23;16.17;;;11.25;;
28028;SDS011;15345;59.364;18.016;2022-12-20T07:44:43;17.80;;;11.07;;
28028;SDS011;15345;59.364;18.016;2022-12-20T07:46:02;16.60;;;11.00;;
28028;SDS011;15345;59.364;18.016;2022-12-20T07:47:21;15.52;;;10.82;;
28028;SDS011;15345;59.364;18.016;2022-12-20T07:48:40;16.77;;;11.32;;
28028;SDS011;15345;59.364;18.016;2022-12-20T07:49:59;18.15;;;10.90;;
28028;SDS011;15345;59.364;18.016;2022-12-20T07:51:20;14.43;;;10.80;;
28028;SDS011;15345;59.364;18.016;2022-12-20T07:52:40;16.75;;;10.40;;
28028;SDS011;15345;59.364;18.016;2022-12-20T07:54:12;19.55;;;11.15;;